createdAt,value
2018-05-26T00:02:01.242Z,0
2018-05-26T00:02:41.769Z,0
2018-05-26T00:03:22.294Z,0
2018-05-26T00:04:02.807Z,0
2018-05-26T00:04:43.328Z,0
2018-05-26T00:05:23.852Z,0
2018-05-26T00:06:04.352Z,0
2018-05-26T00:06:44.872Z,0
2018-05-26T00:07:25.396Z,0
2018-05-26T00:08:05.922Z,0
2018-05-26T00:08:46.435Z,0
2018-05-26T00:09:26.967Z,0
2018-05-26T00:10:07.485Z,0
2018-05-26T00:10:48.013Z,0
2018-05-26T00:11:28.544Z,0
2018-05-26T00:12:09.061Z,0
2018-05-26T00:12:49.568Z,0
2018-05-26T00:13:30.135Z,0
2018-05-26T00:14:10.654Z,0
2018-05-26T00:14:51.168Z,0
2018-05-26T00:15:31.736Z,0
2018-05-26T00:16:12.230Z,0
2018-05-26T00:16:52.747Z,0
2018-05-26T00:17:33.266Z,0
2018-05-26T00:18:13.803Z,0
2018-05-26T00:18:54.342Z,0
2018-05-26T00:19:34.859Z,0
2018-05-26T00:20:15.391Z,0
2018-05-26T00:20:55.918Z,0
2018-05-26T00:21:36.449Z,0
2018-05-26T00:22:16.978Z,0
2018-05-26T00:22:57.504Z,0
2018-05-26T00:23:38.071Z,0
2018-05-26T00:24:18.602Z,0
2018-05-26T00:24:59.120Z,0
2018-05-26T00:25:39.668Z,0
2018-05-26T00:26:20.168Z,0
2018-05-26T00:27:00.692Z,0
2018-05-26T00:27:41.249Z,0
2018-05-26T00:28:21.769Z,0
2018-05-26T00:29:02.296Z,0
2018-05-26T00:29:42.825Z,0
2018-05-26T00:30:23.355Z,0
2018-05-26T00:31:03.878Z,0
2018-05-26T00:31:44.393Z,0
2018-05-26T00:32:24.901Z,0
2018-05-26T00:33:05.413Z,0
2018-05-26T00:33:45.939Z,0
2018-05-26T00:34:26.442Z,0
2018-05-26T00:35:06.958Z,0
2018-05-26T00:35:47.494Z,0
2018-05-26T00:36:28.036Z,0
2018-05-26T00:37:08.571Z,0
2018-05-26T00:37:49.093Z,0
2018-05-26T00:38:29.607Z,0
2018-05-26T00:39:10.160Z,0
2018-05-26T00:39:50.685Z,0
2018-05-26T00:40:31.202Z,0
2018-05-26T00:41:11.710Z,0
2018-05-26T00:41:52.599Z,0
2018-05-26T00:42:33.124Z,0
2018-05-26T00:43:13.646Z,0
2018-05-26T00:43:54.173Z,0
2018-05-26T00:44:34.672Z,0
2018-05-26T00:45:15.182Z,0
2018-05-26T00:45:55.706Z,0
2018-05-26T00:46:36.240Z,0
2018-05-26T00:47:16.749Z,0
2018-05-26T00:47:57.271Z,0
2018-05-26T00:48:37.804Z,0
2018-05-26T00:49:18.313Z,0
2018-05-26T00:49:58.835Z,0
2018-05-26T00:50:39.360Z,0
2018-05-26T00:51:19.894Z,0
2018-05-26T00:52:00.416Z,0
2018-05-26T00:52:40.938Z,0
2018-05-26T00:53:21.449Z,0
2018-05-26T00:54:01.969Z,0
2018-05-26T00:54:42.491Z,0
2018-05-26T00:55:22.998Z,0
2018-05-26T00:56:03.520Z,0
2018-05-26T00:56:44.038Z,0
2018-05-26T00:57:24.543Z,0
2018-05-26T00:58:05.071Z,0
2018-05-26T00:58:45.603Z,0
2018-05-26T00:59:26.126Z,0
2018-05-26T01:00:06.646Z,0
2018-05-26T01:00:47.165Z,0
2018-05-26T01:01:27.686Z,0
2018-05-26T01:02:08.210Z,0
2018-05-26T01:02:48.745Z,0
2018-05-26T01:03:29.258Z,0
2018-05-26T01:06:07.937Z,0
2018-05-26T01:06:48.471Z,0
2018-05-26T01:07:29.013Z,0
2018-05-26T01:08:09.527Z,0
2018-05-26T01:08:50.051Z,0
2018-05-26T01:09:30.582Z,0
2018-05-26T01:10:11.115Z,0
2018-05-26T01:10:51.632Z,0
2018-05-26T01:11:32.160Z,0
2018-05-26T01:12:12.687Z,0
2018-05-26T01:12:53.211Z,0
2018-05-26T01:13:33.736Z,0
2018-05-26T01:14:14.258Z,0
2018-05-26T01:14:54.769Z,0
2018-05-26T01:15:35.287Z,0
2018-05-26T01:16:15.807Z,0
2018-05-26T01:16:56.316Z,0
2018-05-26T01:17:36.856Z,0
2018-05-26T01:18:17.369Z,0
2018-05-26T01:18:57.889Z,0
2018-05-26T01:19:38.410Z,0
2018-05-26T01:20:18.934Z,0
2018-05-26T01:20:59.464Z,0
2018-05-26T01:21:39.998Z,0
2018-05-26T01:22:20.528Z,0
2018-05-26T01:23:01.040Z,0
2018-05-26T01:23:41.562Z,0
2018-05-26T01:24:22.083Z,0
2018-05-26T01:25:02.605Z,0
2018-05-26T01:25:43.119Z,0
2018-05-26T01:26:23.646Z,0
2018-05-26T01:27:04.161Z,0
2018-05-26T01:27:44.685Z,0
2018-05-26T01:28:25.211Z,0
2018-05-26T01:29:05.732Z,0
2018-05-26T01:29:46.249Z,0
2018-05-26T01:30:26.769Z,0
2018-05-26T01:31:07.292Z,0
2018-05-26T01:31:47.824Z,0
2018-05-26T01:32:28.350Z,0
2018-05-26T01:33:08.862Z,0
2018-05-26T01:33:49.392Z,0
2018-05-26T01:34:29.908Z,0
2018-05-26T01:35:10.431Z,0
2018-05-26T01:35:50.944Z,0
2018-05-26T01:36:31.454Z,0
2018-05-26T01:37:11.982Z,0
2018-05-26T01:37:52.629Z,0
2018-05-26T01:38:33.143Z,0
2018-05-26T01:39:13.683Z,0
2018-05-26T01:39:54.202Z,0
2018-05-26T01:40:34.721Z,0
2018-05-26T01:41:15.244Z,0
2018-05-26T01:41:55.773Z,0
2018-05-26T01:42:36.293Z,0
2018-05-26T01:43:16.818Z,0
2018-05-26T01:43:57.335Z,0
2018-05-26T01:44:37.864Z,0
2018-05-26T01:45:18.380Z,0
2018-05-26T01:45:58.909Z,0
2018-05-26T01:46:39.428Z,0
2018-05-26T01:47:19.963Z,0
2018-05-26T01:48:00.501Z,0
2018-05-26T01:48:41.013Z,0
2018-05-26T01:49:21.543Z,0
2018-05-26T01:50:02.060Z,0
2018-05-26T01:50:42.587Z,0
2018-05-26T01:51:23.102Z,0
2018-05-26T01:52:03.629Z,0
2018-05-26T01:52:44.162Z,0
2018-05-26T01:53:24.679Z,0
2018-05-26T01:54:05.193Z,0
2018-05-26T01:54:45.721Z,0
2018-05-26T01:55:26.230Z,0
2018-05-26T01:56:06.760Z,0
2018-05-26T01:56:47.284Z,0
2018-05-26T01:57:27.803Z,0
2018-05-26T01:58:08.324Z,0
2018-05-26T01:58:48.847Z,0
2018-05-26T01:59:29.368Z,0
2018-05-26T02:00:09.881Z,0
2018-05-26T02:00:50.389Z,0
2018-05-26T02:01:30.903Z,0
2018-05-26T02:02:11.432Z,0
2018-05-26T02:02:51.963Z,0
2018-05-26T02:03:32.468Z,0
2018-05-26T02:04:12.995Z,0
2018-05-26T02:04:53.504Z,0
2018-05-26T02:05:34.037Z,0
2018-05-26T02:06:14.558Z,0
2018-05-26T02:06:55.088Z,0
2018-05-26T02:07:35.600Z,0
2018-05-26T02:08:16.112Z,0
2018-05-26T02:08:56.624Z,0
2018-05-26T02:09:37.136Z,0
2018-05-26T02:10:17.690Z,0
2018-05-26T02:10:58.204Z,0
2018-05-26T02:11:38.717Z,0
2018-05-26T02:12:19.246Z,0
2018-05-26T02:12:59.768Z,0
2018-05-26T02:13:40.292Z,0
2018-05-26T02:14:20.811Z,0
2018-05-26T02:15:01.383Z,0
2018-05-26T02:15:41.862Z,0
2018-05-26T02:16:22.367Z,0
2018-05-26T02:17:02.900Z,0
2018-05-26T02:17:43.432Z,0
2018-05-26T02:18:23.946Z,0
2018-05-26T02:19:04.464Z,0
2018-05-26T02:19:44.984Z,0
2018-05-26T02:20:25.498Z,0
2018-05-26T02:21:06.007Z,0
2018-05-26T02:21:46.529Z,0
2018-05-26T02:22:27.051Z,0
2018-05-26T02:23:07.569Z,0
2018-05-26T02:23:48.096Z,0
2018-05-26T02:24:28.618Z,0
2018-05-26T02:25:09.128Z,0
2018-05-26T02:25:49.730Z,0
2018-05-26T02:26:30.243Z,0
2018-05-26T02:27:10.768Z,0
2018-05-26T02:27:51.325Z,0
2018-05-26T02:28:31.863Z,0
2018-05-26T02:29:12.378Z,0
2018-05-26T02:29:52.891Z,0
2018-05-26T02:30:33.418Z,0
2018-05-26T02:31:13.941Z,0
2018-05-26T02:31:54.460Z,0
2018-05-26T02:32:34.975Z,0
2018-05-26T02:33:15.500Z,0
2018-05-26T02:33:56.015Z,0
2018-05-26T02:34:36.540Z,0
2018-05-26T02:35:17.057Z,0
2018-05-26T02:35:57.562Z,0
2018-05-26T02:36:38.068Z,0
2018-05-26T02:37:18.588Z,0
2018-05-26T02:37:59.110Z,0
2018-05-26T02:38:39.626Z,0
2018-05-26T02:39:20.148Z,0
2018-05-26T02:40:00.672Z,0
2018-05-26T02:40:41.197Z,0
2018-05-26T02:41:21.718Z,0
2018-05-26T02:42:02.241Z,0
2018-05-26T02:42:42.754Z,0
2018-05-26T02:43:23.273Z,0
2018-05-26T02:44:03.785Z,0
2018-05-26T02:44:44.318Z,0
2018-05-26T02:45:24.842Z,0
2018-05-26T02:46:05.373Z,0
2018-05-26T02:46:45.909Z,0
2018-05-26T02:47:26.430Z,0
2018-05-26T02:48:06.957Z,0
2018-05-26T02:48:47.475Z,0
2018-05-26T02:49:27.996Z,0
2018-05-26T02:50:08.500Z,0
2018-05-26T02:50:49.029Z,0
2018-05-26T02:51:29.529Z,0
2018-05-26T02:52:10.044Z,0
2018-05-26T02:52:50.566Z,0
2018-05-26T02:53:31.085Z,0
2018-05-26T02:54:11.612Z,0
2018-05-26T02:54:52.125Z,0
2018-05-26T02:55:32.648Z,0
2018-05-26T02:56:13.136Z,0
2018-05-26T02:56:53.674Z,0
2018-05-26T02:57:34.192Z,0
2018-05-26T02:58:14.708Z,0
2018-05-26T02:58:55.239Z,0
2018-05-26T02:59:35.752Z,0
2018-05-26T03:00:16.276Z,0
2018-05-26T03:00:56.804Z,0
2018-05-26T03:01:37.314Z,0
2018-05-26T03:02:17.845Z,0
2018-05-26T03:02:58.358Z,0
2018-05-26T03:03:38.872Z,0
2018-05-26T03:04:19.385Z,0
2018-05-26T03:04:59.910Z,0
2018-05-26T03:05:40.426Z,0
2018-05-26T03:06:20.945Z,0
2018-05-26T03:07:01.471Z,0
2018-05-26T03:07:41.994Z,0
2018-05-26T03:08:22.517Z,0
2018-05-26T03:09:03.043Z,0
2018-05-26T03:09:43.549Z,0
2018-05-26T03:10:24.078Z,0
2018-05-26T03:11:04.614Z,0
2018-05-26T03:11:45.136Z,0
2018-05-26T03:12:25.649Z,0
2018-05-26T03:13:06.165Z,0
2018-05-26T03:13:46.688Z,0
2018-05-26T03:14:27.210Z,0
2018-05-26T03:15:07.733Z,0
2018-05-26T03:15:48.253Z,0
2018-05-26T03:16:28.766Z,0
2018-05-26T03:17:09.296Z,0
2018-05-26T03:17:49.822Z,0
2018-05-26T03:18:30.343Z,0
2018-05-26T03:19:10.867Z,0
2018-05-26T03:19:51.381Z,0
2018-05-26T03:20:31.909Z,0
2018-05-26T03:21:12.437Z,0
2018-05-26T03:21:52.968Z,0
2018-05-26T03:22:33.495Z,0
2018-05-26T03:23:14.023Z,0
2018-05-26T03:23:54.564Z,0
2018-05-26T03:24:35.079Z,0
2018-05-26T03:25:15.592Z,0
2018-05-26T03:25:56.117Z,0
2018-05-26T03:26:36.633Z,0
2018-05-26T03:27:17.149Z,0
2018-05-26T03:27:57.697Z,0
2018-05-26T03:28:38.216Z,0
2018-05-26T03:29:18.720Z,0
2018-05-26T03:29:59.255Z,0
2018-05-26T03:30:39.770Z,0
2018-05-26T03:31:20.298Z,0
2018-05-26T03:32:00.818Z,0
2018-05-26T03:32:41.349Z,0
2018-05-26T03:33:21.873Z,0
2018-05-26T03:34:02.393Z,0
2018-05-26T03:34:42.913Z,0
2018-05-26T03:35:23.435Z,0
2018-05-26T03:36:03.954Z,0
2018-05-26T03:36:44.474Z,0
2018-05-26T03:37:24.988Z,0
2018-05-26T03:38:05.511Z,0
2018-05-26T03:38:46.031Z,0
2018-05-26T03:39:26.557Z,0
2018-05-26T03:40:07.076Z,0
2018-05-26T03:40:47.595Z,0
2018-05-26T03:41:28.113Z,0
2018-05-26T03:42:08.642Z,0
2018-05-26T03:42:49.163Z,0
2018-05-26T03:43:29.684Z,0
2018-05-26T03:44:10.222Z,0
2018-05-26T03:44:50.750Z,0
2018-05-26T03:45:31.279Z,0
2018-05-26T03:46:11.784Z,0
2018-05-26T03:46:52.298Z,0
2018-05-26T03:47:32.819Z,0
2018-05-26T03:48:13.353Z,0
2018-05-26T03:48:53.878Z,0
2018-05-26T03:49:34.393Z,0
2018-05-26T03:50:15.052Z,5
2018-05-26T03:50:55.587Z,5
2018-05-26T03:51:36.119Z,5
2018-05-26T03:52:16.629Z,5
2018-05-26T03:52:57.148Z,5
2018-05-26T03:53:37.667Z,5
2018-05-26T03:54:18.185Z,5
2018-05-26T03:54:58.708Z,5
2018-05-26T03:55:39.239Z,5
2018-05-26T03:56:19.764Z,5
2018-05-26T03:57:00.284Z,5
2018-05-26T03:57:40.801Z,5
2018-05-26T03:58:21.322Z,5
2018-05-26T03:59:01.850Z,5
2018-05-26T03:59:42.373Z,5
2018-05-26T04:00:22.896Z,5
2018-05-26T04:01:03.428Z,5
2018-05-26T04:01:43.961Z,5
2018-05-26T04:02:24.481Z,5
2018-05-26T04:03:05.005Z,5
2018-05-26T04:03:45.526Z,5
2018-05-26T04:04:26.066Z,5
2018-05-26T04:05:06.587Z,5
2018-05-26T04:05:47.110Z,5
2018-05-26T04:06:27.617Z,5
2018-05-26T04:07:08.133Z,10
2018-05-26T04:07:48.670Z,10
2018-05-26T04:08:29.224Z,10
2018-05-26T04:09:09.740Z,10
2018-05-26T04:09:50.253Z,10
2018-05-26T04:10:30.807Z,10
2018-05-26T04:11:11.387Z,10
2018-05-26T04:11:51.922Z,10
2018-05-26T04:12:32.449Z,10
2018-05-26T04:13:12.972Z,10
2018-05-26T04:13:53.508Z,10
2018-05-26T04:14:34.033Z,10
2018-05-26T04:15:14.550Z,10
2018-05-26T04:15:55.072Z,10
2018-05-26T04:16:35.612Z,10
2018-05-26T04:17:16.133Z,10
2018-05-26T04:17:56.668Z,10
2018-05-26T04:18:37.185Z,10
2018-05-26T04:19:17.710Z,10
2018-05-26T04:19:58.231Z,10
2018-05-26T04:20:38.742Z,10
2018-05-26T04:21:19.290Z,10
2018-05-26T04:21:59.810Z,10
2018-05-26T04:22:40.327Z,10
2018-05-26T04:23:20.861Z,10
2018-05-26T04:24:01.391Z,10
2018-05-26T04:24:41.905Z,10
2018-05-26T04:25:22.444Z,10
2018-05-26T04:26:02.983Z,15
2018-05-26T04:26:43.525Z,15
2018-05-26T04:27:24.043Z,15
2018-05-26T04:28:04.560Z,15
2018-05-26T04:28:45.109Z,15
2018-05-26T04:29:25.632Z,15
2018-05-26T04:30:06.169Z,15
2018-05-26T04:30:46.668Z,15
2018-05-26T04:31:27.204Z,15
2018-05-26T04:32:07.739Z,15
2018-05-26T04:32:48.263Z,15
2018-05-26T04:33:28.774Z,15
2018-05-26T04:34:09.284Z,15
2018-05-26T04:34:49.809Z,15
2018-05-26T04:35:30.369Z,15
2018-05-26T04:36:10.848Z,15
2018-05-26T04:36:51.370Z,15
2018-05-26T04:37:31.897Z,15
2018-05-26T04:38:12.430Z,15
2018-05-26T04:38:52.951Z,15
2018-05-26T04:39:33.481Z,15
2018-05-26T04:40:13.994Z,15
2018-05-26T04:40:54.500Z,15
2018-05-26T04:41:35.027Z,15
2018-05-26T04:42:15.553Z,15
2018-05-26T04:42:56.072Z,15
2018-05-26T04:43:36.660Z,15
2018-05-26T04:44:17.190Z,15
2018-05-26T04:44:57.701Z,15
2018-05-26T04:45:38.237Z,15
2018-05-26T04:46:18.784Z,10
2018-05-26T04:46:59.326Z,10
2018-05-26T04:47:39.844Z,15
2018-05-26T04:48:20.839Z,10
2018-05-26T04:49:00.879Z,10
2018-05-26T04:49:41.412Z,10
2018-05-26T04:50:21.931Z,10
2018-05-26T04:51:02.449Z,10
2018-05-26T04:51:42.966Z,10
2018-05-26T04:52:23.494Z,10
2018-05-26T04:53:04.029Z,10
2018-05-26T04:53:44.554Z,10
2018-05-26T04:54:25.107Z,10
2018-05-26T04:55:05.598Z,10
2018-05-26T04:55:46.116Z,10
2018-05-26T04:56:26.633Z,10
2018-05-26T04:57:07.160Z,10
2018-05-26T04:57:47.677Z,10
2018-05-26T04:58:28.207Z,15
2018-05-26T04:59:08.726Z,15
2018-05-26T04:59:49.246Z,15
2018-05-26T05:00:29.779Z,15
2018-05-26T05:01:10.305Z,15
2018-05-26T05:01:50.822Z,15
2018-05-26T05:02:31.344Z,15
2018-05-26T05:03:11.851Z,15
2018-05-26T05:03:52.368Z,15
2018-05-26T05:04:32.897Z,15
2018-05-26T05:05:13.407Z,15
2018-05-26T05:05:53.917Z,15
2018-05-26T05:06:34.482Z,15
2018-05-26T05:07:15.023Z,15
2018-05-26T05:07:55.540Z,15
2018-05-26T05:08:36.116Z,10
2018-05-26T05:09:16.620Z,15
2018-05-26T05:09:57.135Z,15
2018-05-26T05:10:37.670Z,15
2018-05-26T05:11:18.200Z,15
2018-05-26T05:11:58.719Z,15
2018-05-26T05:12:39.233Z,15
2018-05-26T05:13:19.767Z,15
2018-05-26T05:14:00.290Z,15
2018-05-26T05:14:40.845Z,15
2018-05-26T05:15:21.376Z,15
2018-05-26T05:16:01.880Z,15
2018-05-26T05:16:42.396Z,15
2018-05-26T05:17:22.919Z,15
2018-05-26T05:18:03.434Z,15
2018-05-26T05:18:43.951Z,15
2018-05-26T05:19:24.480Z,15
2018-05-26T05:20:04.999Z,15
2018-05-26T05:20:45.522Z,15
2018-05-26T05:21:26.036Z,15
2018-05-26T05:22:06.551Z,15
2018-05-26T05:22:47.062Z,15
2018-05-26T05:23:27.587Z,15
2018-05-26T05:24:08.115Z,15
2018-05-26T05:24:48.638Z,15
2018-05-26T05:25:29.158Z,15
2018-05-26T05:26:09.672Z,15
2018-05-26T05:26:50.249Z,15
2018-05-26T05:27:30.739Z,15
2018-05-26T05:28:11.252Z,15
2018-05-26T05:28:51.767Z,15
2018-05-26T05:29:32.283Z,15
2018-05-26T05:30:12.812Z,15
2018-05-26T05:30:53.336Z,15
2018-05-26T05:31:33.855Z,15
2018-05-26T05:32:14.383Z,15
2018-05-26T05:32:54.914Z,15
2018-05-26T05:33:35.443Z,15
2018-05-26T05:34:15.964Z,15
2018-05-26T05:34:56.486Z,15
2018-05-26T05:35:36.997Z,15
2018-05-26T05:36:17.515Z,15
2018-05-26T05:36:58.054Z,15
2018-05-26T05:37:38.588Z,15
2018-05-26T05:38:19.095Z,20
2018-05-26T05:38:59.610Z,20
2018-05-26T05:39:40.127Z,20
2018-05-26T05:40:20.691Z,20
2018-05-26T05:41:01.208Z,20
2018-05-26T05:41:41.731Z,20
2018-05-26T05:42:22.255Z,20
2018-05-26T05:43:02.776Z,20
2018-05-26T05:43:43.302Z,20
2018-05-26T05:44:23.816Z,20
2018-05-26T05:45:04.351Z,20
2018-05-26T05:45:44.872Z,20
2018-05-26T05:46:25.414Z,20
2018-05-26T05:47:05.941Z,25
2018-05-26T05:47:46.449Z,25
2018-05-26T05:48:26.968Z,30
2018-05-26T05:49:07.494Z,30
2018-05-26T05:49:48.011Z,35
2018-05-26T05:50:28.530Z,40
2018-05-26T05:51:09.049Z,40
2018-05-26T05:51:49.573Z,60
2018-05-26T05:52:30.104Z,65
2018-05-26T05:53:10.626Z,75
2018-05-26T05:53:51.162Z,75
2018-05-26T05:54:31.888Z,85
2018-05-26T05:55:12.213Z,80
2018-05-26T05:55:52.780Z,90
2018-05-26T05:56:33.321Z,90
2018-05-26T05:57:13.817Z,95
2018-05-26T05:57:54.342Z,95
2018-05-26T05:58:34.848Z,95
2018-05-26T05:59:15.391Z,95
2018-05-26T05:59:55.921Z,95
2018-05-26T06:00:36.444Z,90
2018-05-26T06:01:16.960Z,60
2018-05-26T06:01:57.487Z,70
2018-05-26T06:02:38.063Z,75
2018-05-26T06:03:18.585Z,65
2018-05-26T06:03:59.120Z,65
2018-05-26T06:04:39.647Z,65
2018-05-26T06:05:20.178Z,65
2018-05-26T06:06:00.685Z,70
2018-05-26T06:06:41.226Z,70
2018-05-26T06:07:21.748Z,70
2018-05-26T06:08:02.260Z,75
2018-05-26T06:08:42.808Z,75
2018-05-26T06:09:23.340Z,75
2018-05-26T06:10:03.872Z,70
2018-05-26T06:10:44.409Z,70
2018-05-26T06:11:24.952Z,70
2018-05-26T06:12:05.458Z,70
2018-05-26T06:12:45.989Z,70
2018-05-26T06:13:26.526Z,70
2018-05-26T06:14:07.082Z,75
2018-05-26T06:14:47.600Z,75
2018-05-26T06:15:28.147Z,80
2018-05-26T06:16:08.654Z,80
2018-05-26T06:16:49.194Z,80
2018-05-26T06:17:29.749Z,75
2018-05-26T06:18:10.286Z,80
2018-05-26T06:18:50.828Z,80
2018-05-26T06:19:31.326Z,80
2018-05-26T06:20:11.852Z,80
2018-05-26T06:20:52.380Z,80
2018-05-26T06:21:32.912Z,80
2018-05-26T06:22:13.429Z,75
2018-05-26T06:22:53.943Z,75
2018-05-26T06:23:34.481Z,75
2018-05-26T06:24:14.988Z,75
2018-05-26T06:24:55.522Z,75
2018-05-26T06:25:36.049Z,75
2018-05-26T06:26:16.619Z,75
2018-05-26T06:26:57.133Z,75
2018-05-26T06:27:37.650Z,75
2018-05-26T06:28:18.193Z,75
2018-05-26T06:28:58.728Z,75
2018-05-26T06:29:39.252Z,80
2018-05-26T06:30:19.794Z,80
2018-05-26T06:31:00.288Z,80
2018-05-26T06:31:40.825Z,80
2018-05-26T06:32:21.963Z,80
2018-05-26T06:33:02.506Z,80
2018-05-26T06:33:43.061Z,80
2018-05-26T06:34:23.652Z,75
2018-05-26T06:35:04.371Z,70
2018-05-26T06:35:44.887Z,75
2018-05-26T06:36:25.405Z,75
2018-05-26T06:37:05.927Z,75
2018-05-26T06:37:46.522Z,70
2018-05-26T06:38:26.995Z,65
2018-05-26T06:39:07.517Z,65
2018-05-26T06:39:48.129Z,65
2018-05-26T06:40:28.653Z,65
2018-05-26T06:41:09.191Z,65
2018-05-26T06:41:49.725Z,65
2018-05-26T06:42:30.260Z,65
2018-05-26T06:43:10.773Z,65
2018-05-26T06:43:51.294Z,65
2018-05-26T06:44:31.811Z,65
2018-05-26T06:45:12.924Z,65
2018-05-26T06:45:53.074Z,65
2018-05-26T06:46:33.521Z,65
2018-05-26T06:47:13.985Z,65
2018-05-26T06:47:54.506Z,65
2018-05-26T06:48:35.028Z,65
2018-05-26T06:49:15.555Z,65
2018-05-26T06:49:56.688Z,65
2018-05-26T06:50:37.255Z,65
2018-05-26T06:51:17.861Z,65
2018-05-26T06:51:58.546Z,65
2018-05-26T06:52:39.057Z,65
2018-05-26T06:53:19.621Z,65
2018-05-26T06:54:00.164Z,65
2018-05-26T06:54:40.628Z,65
2018-05-26T06:55:21.149Z,65
2018-05-26T06:56:01.667Z,65
2018-05-26T06:56:42.609Z,65
2018-05-26T06:57:22.934Z,65
2018-05-26T06:58:03.441Z,65
2018-05-26T06:58:43.927Z,65
2018-05-26T06:59:24.578Z,65
2018-05-26T07:00:05.368Z,65
2018-05-26T07:00:45.891Z,65
2018-05-26T07:01:26.403Z,65
2018-05-26T07:02:06.913Z,65
2018-05-26T07:02:47.429Z,65
2018-05-26T07:03:28.089Z,65
2018-05-26T07:04:08.548Z,65
2018-05-26T07:04:49.062Z,55
2018-05-26T07:05:29.888Z,55
2018-05-26T07:06:11.326Z,65
2018-05-26T07:06:51.852Z,65
2018-05-26T07:07:32.306Z,65
2018-05-26T07:08:13.219Z,65
2018-05-26T07:08:53.472Z,60
2018-05-26T07:09:34.135Z,55
2018-05-26T07:10:14.652Z,55
2018-05-26T07:10:55.238Z,55
2018-05-26T07:11:35.655Z,55
2018-05-26T07:12:16.152Z,55
2018-05-26T07:12:56.663Z,60
2018-05-26T07:13:37.190Z,60
2018-05-26T07:14:17.702Z,65
2018-05-26T07:14:58.244Z,65
2018-05-26T07:15:38.746Z,60
2018-05-26T07:16:19.289Z,55
2018-05-26T07:16:59.820Z,60
2018-05-26T07:17:40.341Z,60
2018-05-26T07:18:20.872Z,60
2018-05-26T07:19:01.337Z,60
2018-05-26T07:19:41.853Z,60
2018-05-26T07:20:22.358Z,55
2018-05-26T07:21:02.883Z,60
2018-05-26T07:21:43.401Z,60
2018-05-26T07:22:23.932Z,55
2018-05-26T07:23:04.450Z,55
2018-05-26T07:23:44.983Z,55
2018-05-26T07:24:25.502Z,55
2018-05-26T07:25:06.020Z,55
2018-05-26T07:25:46.543Z,55
2018-05-26T07:26:27.065Z,50
2018-05-26T07:27:07.587Z,50
2018-05-26T07:27:48.316Z,50
2018-05-26T07:28:28.785Z,55
2018-05-26T07:29:09.313Z,55
2018-05-26T07:29:49.833Z,55
2018-05-26T07:30:30.409Z,50
2018-05-26T07:31:10.930Z,50
2018-05-26T07:31:51.597Z,55
2018-05-26T07:32:32.226Z,55
2018-05-26T07:33:12.813Z,50
2018-05-26T07:33:53.370Z,50
2018-05-26T07:34:33.899Z,55
2018-05-26T07:35:14.439Z,50
2018-05-26T07:35:54.962Z,50
2018-05-26T07:36:35.467Z,50
2018-05-26T07:37:15.999Z,55
2018-05-26T07:37:56.538Z,55
2018-05-26T07:38:37.053Z,55
2018-05-26T07:39:17.573Z,55
2018-05-26T07:39:58.096Z,55
2018-05-26T07:40:38.661Z,55
2018-05-26T07:41:19.220Z,55
2018-05-26T07:41:59.749Z,55
2018-05-26T07:42:40.259Z,55
2018-05-26T07:43:20.814Z,55
2018-05-26T07:44:01.342Z,50
2018-05-26T07:44:41.870Z,50
2018-05-26T07:45:22.413Z,55
2018-05-26T07:46:02.967Z,55
2018-05-26T07:46:43.492Z,50
2018-05-26T07:47:24.014Z,50
2018-05-26T07:48:04.516Z,50
2018-05-26T07:48:45.035Z,45
2018-05-26T07:49:25.747Z,45
2018-05-26T07:50:06.287Z,45
2018-05-26T07:50:46.821Z,50
2018-05-26T07:51:27.340Z,50
2018-05-26T07:52:07.836Z,50
2018-05-26T07:52:48.368Z,50
2018-05-26T07:53:28.874Z,50
2018-05-26T07:54:09.438Z,50
2018-05-26T07:54:49.971Z,50
2018-05-26T07:55:30.993Z,50
2018-05-26T07:56:11.526Z,50
2018-05-26T07:56:52.048Z,50
2018-05-26T07:57:32.578Z,50
2018-05-26T07:58:13.099Z,50
2018-05-26T07:58:53.634Z,45
2018-05-26T07:59:34.124Z,50
2018-05-26T08:00:14.815Z,50
2018-05-26T08:00:55.300Z,50
2018-05-26T08:01:36.028Z,50
2018-05-26T08:02:16.751Z,50
2018-05-26T08:02:57.269Z,50
2018-05-26T08:03:37.805Z,50
2018-05-26T08:04:18.324Z,50
2018-05-26T08:04:58.850Z,45
2018-05-26T08:05:39.371Z,45
2018-05-26T08:06:19.891Z,45
2018-05-26T08:07:00.404Z,45
2018-05-26T08:07:40.924Z,40
2018-05-26T08:08:21.615Z,45
2018-05-26T08:09:02.141Z,40
2018-05-26T08:09:42.654Z,40
2018-05-26T08:10:23.182Z,40
2018-05-26T08:11:03.707Z,40
2018-05-26T08:11:44.228Z,40
2018-05-26T08:12:24.768Z,40
2018-05-26T08:13:05.294Z,40
2018-05-26T08:13:45.848Z,40
2018-05-26T08:14:26.366Z,40
2018-05-26T08:15:06.888Z,40
2018-05-26T08:15:47.427Z,40
2018-05-26T08:16:27.921Z,40
2018-05-26T08:17:08.479Z,40
2018-05-26T08:17:48.960Z,40
2018-05-26T08:18:29.482Z,40
2018-05-26T08:19:10.003Z,40
2018-05-26T08:19:50.518Z,35
2018-05-26T08:20:31.064Z,35
2018-05-26T08:21:11.583Z,35
2018-05-26T08:21:52.586Z,35
2018-05-26T08:22:33.128Z,35
2018-05-26T08:23:13.641Z,35
2018-05-26T08:23:54.174Z,35
2018-05-26T08:24:34.754Z,35
2018-05-26T08:25:15.229Z,35
2018-05-26T08:25:55.760Z,35
2018-05-26T08:26:36.288Z,35
2018-05-26T08:27:16.830Z,35
2018-05-26T08:27:57.348Z,35
2018-05-26T08:28:37.876Z,35
2018-05-26T08:29:18.409Z,35
2018-05-26T08:29:58.924Z,35
2018-05-26T08:30:39.458Z,35
2018-05-26T08:31:19.979Z,35
2018-05-26T08:32:00.524Z,35
2018-05-26T08:32:41.030Z,35
2018-05-26T08:33:21.563Z,35
2018-05-26T08:34:02.087Z,35
2018-05-26T08:34:42.624Z,35
2018-05-26T08:35:23.218Z,35
2018-05-26T08:36:03.722Z,35
2018-05-26T08:36:44.266Z,35
2018-05-26T08:37:24.774Z,35
2018-05-26T08:38:05.314Z,35
2018-05-26T08:38:45.857Z,35
2018-05-26T08:39:26.398Z,35
2018-05-26T08:40:06.924Z,35
2018-05-26T08:40:47.483Z,30
2018-05-26T08:41:28.009Z,35
2018-05-26T08:42:08.529Z,35
2018-05-26T08:42:49.073Z,35
2018-05-26T08:43:29.686Z,35
2018-05-26T08:44:10.156Z,35
2018-05-26T08:44:50.679Z,35
2018-05-26T08:45:31.211Z,35
2018-05-26T08:46:11.710Z,35
2018-05-26T08:46:52.229Z,35
2018-05-26T08:47:32.764Z,35
2018-05-26T08:48:13.286Z,35
2018-05-26T08:48:53.817Z,35
2018-05-26T08:49:34.337Z,35
2018-05-26T08:50:14.875Z,30
2018-05-26T08:50:55.385Z,30
2018-05-26T08:51:35.885Z,35
2018-05-26T08:52:16.427Z,35
2018-05-26T08:52:56.951Z,35
2018-05-26T08:53:37.484Z,35
2018-05-26T08:54:18.005Z,35
2018-05-26T08:54:58.544Z,35
2018-05-26T08:55:39.088Z,35
2018-05-26T08:56:19.635Z,35
2018-05-26T08:57:00.248Z,35
2018-05-26T08:57:40.759Z,35
2018-05-26T08:58:21.301Z,35
2018-05-26T08:59:01.819Z,35
2018-05-26T08:59:42.355Z,35
2018-05-26T09:00:22.891Z,30
2018-05-26T09:01:03.505Z,35
2018-05-26T09:01:44.075Z,35
2018-05-26T09:02:24.732Z,35
2018-05-26T09:03:05.183Z,35
2018-05-26T09:03:45.723Z,35
2018-05-26T09:04:26.253Z,35
2018-05-26T09:05:06.787Z,35
2018-05-26T09:05:47.295Z,35
2018-05-26T09:06:27.880Z,35
2018-05-26T09:07:08.432Z,35
2018-05-26T09:07:48.954Z,35
2018-05-26T09:08:29.475Z,35
2018-05-26T09:09:10.012Z,35
2018-05-26T09:09:50.547Z,35
2018-05-26T09:10:31.091Z,35
2018-05-26T09:11:11.653Z,35
2018-05-26T09:11:52.352Z,35
2018-05-26T09:12:32.883Z,35
2018-05-26T09:14:51.377Z,35
2018-05-26T09:15:31.899Z,35
2018-05-26T09:16:12.445Z,30
2018-05-26T09:16:52.956Z,30
2018-05-26T09:17:33.502Z,35
2018-05-26T09:18:14.020Z,35
2018-05-26T09:18:54.549Z,35
2018-05-26T09:19:35.075Z,35
2018-05-26T09:20:15.613Z,35
2018-05-26T09:20:56.178Z,35
2018-05-26T09:21:36.674Z,35
2018-05-26T09:22:17.193Z,35
2018-05-26T09:22:57.730Z,35
2018-05-26T09:23:38.270Z,35
2018-05-26T09:24:18.792Z,35
2018-05-26T09:24:59.379Z,35
2018-05-26T09:25:39.853Z,35
2018-05-26T09:26:20.372Z,35
2018-05-26T09:27:01.448Z,35
2018-05-26T09:27:42.088Z,35
2018-05-26T09:28:22.679Z,35
2018-05-26T09:29:03.230Z,35
2018-05-26T09:29:43.732Z,35
2018-05-26T09:30:24.239Z,30
2018-05-26T09:31:04.741Z,30
2018-05-26T09:31:45.346Z,30
2018-05-26T09:32:26.063Z,35
2018-05-26T09:33:06.617Z,35
2018-05-26T09:33:47.178Z,35
2018-05-26T09:34:27.762Z,35
2018-05-26T09:35:08.367Z,30
2018-05-26T09:35:48.907Z,35
2018-05-26T09:36:29.409Z,35
2018-05-26T09:37:09.930Z,35
2018-05-26T09:37:50.491Z,30
2018-05-26T09:38:30.980Z,30
2018-05-26T09:39:11.492Z,35
2018-05-26T09:39:51.984Z,35
2018-05-26T09:40:32.505Z,35
2018-05-26T09:41:13.045Z,35
2018-05-26T09:41:53.558Z,35
2018-05-26T09:42:34.048Z,35
2018-05-26T09:43:14.601Z,35
2018-05-26T09:43:55.074Z,35
2018-05-26T09:44:35.572Z,35
2018-05-26T09:45:16.115Z,35
2018-05-26T09:45:56.618Z,35
2018-05-26T09:46:37.078Z,35
2018-05-26T09:47:17.616Z,35
2018-05-26T09:47:58.124Z,35
2018-05-26T09:48:38.618Z,35
2018-05-26T09:49:19.130Z,35
2018-05-26T09:49:59.650Z,35
2018-05-26T09:50:40.193Z,40
2018-05-26T09:51:20.700Z,40
2018-05-26T09:52:01.234Z,35